createdAt,value
2023-04-10T00:00:13.581Z,0.00
2023-04-10T00:01:13.521Z,0.00
2023-04-10T00:02:13.647Z,0.00
2023-04-10T00:03:13.718Z,0.00
2023-04-10T00:04:13.525Z,0.00
2023-04-10T00:05:13.361Z,0.00
2023-04-10T00:06:13.274Z,0.00
2023-04-10T00:07:13.220Z,0.00
2023-04-10T00:08:13.178Z,0.00
2023-04-10T00:09:13.123Z,0.00
2023-04-10T00:10:13.074Z,0.00
2023-04-10T00:11:13.026Z,0.00
2023-04-10T00:12:12.989Z,0.00
2023-04-10T15:43:52.178Z,1176.00
2023-04-10T15:44:52.067Z,1228.00
2023-04-10T15:45:52.031Z,1240.00
2023-04-10T15:46:51.970Z,1212.00
2023-04-10T15:47:52.005Z,1172.00
2023-04-10T15:48:51.878Z,1132.00
2023-04-10T15:49:51.836Z,1096.00
2023-04-10T15:50:51.796Z,1092.00
2023-04-10T15:51:51.761Z,1088.00
2023-04-10T15:52:51.701Z,1108.00
2023-04-10T18:35:09.107Z,0.00
2023-04-10T18:36:09.081Z,0.00
2023-04-10T18:37:09.952Z,0.00
2023-04-10T18:38:08.927Z,0.00
2023-04-10T18:39:08.888Z,0.00
2023-04-10T18:40:16.218Z,0.00
2023-04-10T18:41:08.809Z,0.00
2023-04-10T18:42:08.754Z,0.00
2023-04-10T18:43:08.708Z,0.00
2023-04-10T18:44:08.998Z,0.00
2023-04-10T18:45:08.617Z,0.00
2023-04-10T18:46:08.689Z,0.00
2023-04-10T18:47:08.617Z,0.00
2023-04-10T18:48:08.491Z,0.00
2023-04-10T18:49:08.442Z,0.00
2023-04-10T18:50:08.403Z,0.00
2023-04-10T18:51:08.380Z,0.00
2023-04-10T18:52:08.313Z,0.00
2023-04-10T18:53:08.272Z,0.00
2023-04-10T18:54:08.234Z,0.00
2023-04-10T18:55:08.180Z,0.00
2023-04-10T18:56:08.142Z,0.00
2023-04-10T18:57:08.097Z,0.00
2023-04-10T18:58:08.052Z,0.00
2023-04-10T19:41:15.102Z,0.00
2023-04-10T19:42:15.015Z,0.00
2023-04-10T19:43:15.026Z,0.00
2023-04-10T19:44:14.928Z,0.00
2023-04-10T19:45:14.886Z,0.00
2023-04-10T19:46:14.877Z,0.00
2023-04-10T19:47:14.788Z,0.00
2023-04-10T19:48:14.954Z,0.00
2023-04-10T19:49:14.720Z,0.00
2023-04-10T19:50:14.654Z,0.00
2023-04-10T19:51:14.622Z,0.00
2023-04-10T19:52:14.574Z,0.00
2023-04-10T19:53:14.526Z,0.00
2023-04-10T19:54:14.478Z,0.00
2023-04-10T19:55:15.213Z,0.00
2023-04-10T19:56:14.386Z,0.00
2023-04-10T19:57:14.361Z,0.00
2023-04-10T19:58:30.538Z,0.00
2023-04-10T19:59:14.267Z,0.00
2023-04-10T20:00:14.212Z,0.00
2023-04-10T20:01:14.176Z,0.00
2023-04-10T20:02:14.263Z,0.00
2023-04-10T20:03:14.239Z,0.00
2023-04-10T20:04:14.109Z,0.00
2023-04-10T20:05:14.031Z,0.00
2023-04-10T20:06:13.973Z,0.00
2023-04-10T20:07:13.895Z,0.00
2023-04-10T20:08:13.852Z,0.00
2023-04-10T20:09:13.822Z,0.00
2023-04-10T20:10:13.759Z,0.00
2023-04-10T20:11:13.725Z,0.00
2023-04-10T20:12:13.675Z,0.00
2023-04-10T20:13:13.655Z,0.00
2023-04-10T20:14:13.609Z,0.00
2023-04-10T20:15:13.545Z,0.00
2023-04-10T20:16:13.526Z,0.00
2023-04-10T20:17:13.458Z,0.00
2023-04-10T20:18:13.412Z,0.00
2023-04-10T20:19:13.367Z,0.00
2023-04-10T20:20:13.522Z,0.00
2023-04-10T20:21:13.275Z,0.00
2023-04-10T20:22:13.231Z,0.00
2023-04-10T20:23:13.187Z,0.00
2023-04-10T20:24:13.143Z,0.00
2023-04-10T20:25:13.094Z,0.00
2023-04-10T20:26:13.071Z,0.00
2023-04-10T20:27:13.011Z,0.00
2023-04-10T20:28:12.986Z,0.00
2023-04-10T20:29:12.949Z,0.00
2023-04-10T20:30:12.945Z,0.00
2023-04-10T20:31:12.916Z,0.00
2023-04-10T20:32:12.881Z,0.00
2023-04-10T20:33:12.790Z,0.00
2023-04-10T20:34:12.700Z,0.00
2023-04-10T20:35:12.658Z,0.00
2023-04-10T20:36:12.629Z,0.00
2023-04-10T20:37:12.563Z,0.00
2023-04-10T20:38:12.531Z,0.00
2023-04-10T20:39:12.481Z,0.00
2023-04-10T20:40:12.433Z,0.00
2023-04-10T20:41:12.392Z,0.00
2023-04-10T20:42:12.360Z,0.00
2023-04-10T20:43:12.406Z,0.00
2023-04-10T20:44:12.250Z,0.00
2023-04-10T20:46:12.186Z,0.00
2023-04-10T20:47:12.243Z,0.00
2023-04-10T20:48:12.101Z,0.00
2023-04-10T20:50:12.881Z,0.00
2023-04-10T20:51:11.943Z,0.00
2023-04-10T20:52:11.909Z,0.00
2023-04-10T20:53:11.854Z,0.00
2023-04-10T20:54:11.874Z,0.00
2023-04-10T20:55:11.774Z,0.00
2023-04-10T20:56:11.722Z,0.00
2023-04-10T20:57:11.675Z,0.00
2023-04-10T20:58:11.631Z,0.00
2023-04-10T20:59:11.587Z,0.00
2023-04-10T21:00:11.544Z,0.00
2023-04-10T21:01:11.536Z,0.00
2023-04-10T21:02:11.559Z,0.00
2023-04-10T21:03:11.700Z,0.00
2023-04-10T21:04:11.393Z,0.00
2023-04-10T21:05:11.326Z,0.00
2023-04-10T21:06:11.280Z,0.00
2023-04-10T21:07:11.240Z,0.00
2023-04-10T21:08:11.195Z,0.00
2023-04-10T21:09:11.148Z,0.00
2023-04-10T21:10:11.117Z,0.00
2023-04-10T21:11:11.061Z,0.00
2023-04-10T21:12:11.013Z,0.00
2023-04-10T21:13:10.971Z,0.00
2023-04-10T21:14:10.928Z,0.00
2023-04-10T21:15:10.891Z,0.00
2023-04-10T21:16:10.856Z,0.00
2023-04-10T21:17:10.793Z,0.00
2023-04-10T21:18:10.797Z,0.00
2023-04-10T21:19:10.706Z,0.00
2023-04-10T21:20:10.678Z,0.00
2023-04-10T21:21:10.614Z,0.00
2023-04-10T21:22:10.573Z,0.00
2023-04-10T21:23:10.525Z,0.00
2023-04-10T21:24:10.490Z,0.00
2023-04-10T21:25:10.440Z,0.00
2023-04-10T21:26:10.402Z,0.00
2023-04-10T21:27:10.353Z,0.00
2023-04-10T21:28:10.305Z,0.00
2023-04-10T21:29:10.260Z,0.00
2023-04-10T21:30:10.240Z,0.00
2023-04-10T21:31:10.170Z,0.00
2023-04-10T21:32:10.177Z,0.00
2023-04-10T21:33:10.092Z,0.00
2023-04-10T21:34:10.053Z,0.00
2023-04-10T21:35:09.989Z,0.00
2023-04-10T21:36:09.979Z,0.00
2023-04-10T21:37:09.913Z,0.00
2023-04-10T21:38:09.886Z,0.00
2023-04-10T21:39:09.833Z,0.00
2023-04-10T21:40:09.817Z,0.00
2023-04-10T21:41:09.726Z,0.00
2023-04-10T21:42:09.675Z,0.00
2023-04-10T21:43:09.651Z,0.00
2023-04-10T21:44:09.591Z,0.00
2023-04-10T21:45:09.540Z,0.00
2023-04-10T21:46:09.524Z,0.00
2023-04-10T21:47:09.454Z,0.00
2023-04-10T21:48:09.412Z,0.00
2023-04-10T21:49:09.380Z,0.00
2023-04-10T21:50:09.548Z,0.00
2023-04-10T21:51:09.295Z,0.00
2023-04-10T21:52:09.239Z,0.00
2023-04-10T21:53:09.199Z,0.00
2023-04-10T21:54:09.144Z,0.00
2023-04-10T21:55:09.097Z,0.00
2023-04-10T21:56:09.049Z,0.00
2023-04-10T21:57:09.014Z,0.00
2023-04-10T21:58:08.957Z,0.00
2023-04-10T21:59:08.920Z,0.00
2023-04-10T22:00:08.866Z,0.00
2023-04-10T22:01:08.866Z,0.00
2023-04-10T22:02:08.822Z,0.00
2023-04-10T22:03:08.876Z,0.00
2023-04-10T22:04:08.781Z,0.00
2023-04-10T22:05:08.648Z,0.00
2023-04-10T22:06:08.623Z,0.00
2023-04-10T22:07:08.561Z,0.00
2023-04-10T22:08:08.509Z,0.00
2023-04-10T22:09:08.468Z,0.00
2023-04-10T22:10:08.428Z,0.00
2023-04-10T22:11:08.381Z,0.00
2023-04-10T22:12:08.331Z,0.00
2023-04-10T22:13:10.273Z,0.00
2023-04-10T22:14:16.990Z,0.00
2023-04-10T22:15:08.214Z,0.00
2023-04-10T22:16:08.189Z,0.00
2023-04-10T22:17:08.253Z,0.00
2023-04-10T22:18:08.189Z,0.00
2023-04-10T22:19:08.031Z,0.00
2023-04-10T22:20:07.982Z,0.00
2023-04-10T22:21:07.946Z,0.00
2023-04-10T22:22:07.901Z,0.00
2023-04-10T22:23:07.864Z,0.00
2023-04-10T22:24:07.797Z,0.00
2023-04-10T22:25:07.755Z,0.00
2023-04-10T22:26:07.911Z,0.00
2023-04-10T22:27:07.666Z,0.00
2023-04-10T22:28:07.617Z,0.00
2023-04-10T22:29:07.638Z,0.00
2023-04-10T22:30:07.607Z,0.00
2023-04-10T22:31:07.725Z,0.00
2023-04-10T22:32:07.443Z,0.00
2023-04-10T22:33:07.430Z,0.00
2023-04-10T22:34:07.346Z,0.00
2023-04-10T22:35:07.314Z,0.00
2023-04-10T22:36:07.289Z,0.00
2023-04-10T22:37:07.219Z,0.00
2023-04-10T22:38:07.271Z,0.00
2023-04-10T22:39:07.122Z,0.00
2023-04-10T22:40:07.280Z,0.00
2023-04-10T22:41:07.039Z,0.00
2023-04-10T22:42:06.986Z,0.00
2023-04-10T22:43:06.950Z,0.00
2023-04-10T22:44:06.897Z,0.00
2023-04-10T22:45:06.860Z,0.00
2023-04-10T22:46:06.857Z,0.00
2023-04-10T22:47:06.766Z,0.00
2023-04-10T22:48:06.832Z,0.00
2023-04-10T22:49:06.678Z,0.00
2023-04-10T22:50:06.625Z,0.00
2023-04-10T22:51:06.579Z,0.00
2023-04-10T22:52:06.530Z,0.00
2023-04-10T22:53:06.500Z,0.00
2023-04-10T22:54:06.461Z,0.00
2023-04-10T22:55:06.405Z,0.00
2023-04-10T22:56:06.364Z,0.00
2023-04-10T22:57:06.306Z,0.00
2023-04-10T22:58:06.264Z,0.00
2023-04-10T22:59:06.218Z,0.00
2023-04-10T23:00:06.200Z,0.00
2023-04-10T23:01:06.162Z,0.00
2023-04-10T23:02:06.239Z,0.00
2023-04-10T23:03:06.142Z,0.00
2023-04-10T23:04:06.038Z,0.00
2023-04-10T23:05:05.950Z,0.00
2023-04-10T23:06:05.913Z,0.00
2023-04-10T23:07:05.865Z,0.00
2023-04-10T23:08:05.823Z,0.00
2023-04-10T23:09:05.766Z,0.00
2023-04-10T23:10:05.741Z,0.00
2023-04-10T23:11:05.674Z,0.00
2023-04-10T23:12:05.629Z,0.00
2023-04-10T23:13:05.588Z,0.00
2023-04-10T23:14:05.555Z,0.00
2023-04-10T23:15:05.504Z,0.00
2023-04-10T23:16:05.506Z,0.00
2023-04-10T23:17:05.411Z,0.00
2023-04-10T23:18:05.419Z,0.00
2023-04-10T23:19:05.318Z,0.00
2023-04-10T23:20:05.269Z,0.00
2023-04-10T23:21:05.232Z,0.00
2023-04-10T23:22:05.192Z,0.00
2023-04-10T23:23:05.141Z,0.00
2023-04-10T23:24:05.093Z,0.00
2023-04-10T23:25:05.066Z,0.00
2023-04-10T23:26:05.029Z,0.00
2023-04-10T23:27:04.959Z,0.00
2023-04-10T23:28:04.910Z,0.00
2023-04-10T23:29:04.881Z,0.00
2023-04-10T23:30:04.829Z,0.00
2023-04-10T23:31:04.847Z,0.00
2023-04-10T23:32:04.732Z,0.00
2023-04-10T23:33:04.753Z,0.00
2023-04-10T23:34:04.643Z,0.00
2023-04-10T23:35:04.596Z,0.00
2023-04-10T23:36:04.608Z,0.00
2023-04-10T23:37:04.507Z,0.00
2023-04-10T23:38:04.464Z,0.00
2023-04-10T23:39:04.422Z,0.00
2023-04-10T23:40:04.372Z,0.00
2023-04-10T23:41:04.325Z,0.00
2023-04-10T23:58:47.867Z,0.00
2023-04-10T23:59:46.550Z,0.00
